createdAt,value
2022-08-09T00:00:00.059Z,15.53
2022-08-09T00:02:57.326Z,15.49
2022-08-09T00:06:17.389Z,15.42
2022-08-09T00:08:32.198Z,15.25
2022-08-09T00:11:05.982Z,15.24
2022-08-09T00:13:50.503Z,15.32
2022-08-09T00:16:26.404Z,15.37
2022-08-09T00:19:09.383Z,15.35
2022-08-09T00:21:55.538Z,15.35
2022-08-09T00:24:27.520Z,15.37
2022-08-09T00:26:57.308Z,15.34
2022-08-09T00:29:39.706Z,15.35
2022-08-09T00:32:17.305Z,15.35
2022-08-09T00:34:55.266Z,15.36
2022-08-09T00:37:22.449Z,15.38
2022-08-09T00:40:12.532Z,15.39
2022-08-09T00:44:19.479Z,15.39
2022-08-09T00:45:28.231Z,15.35
2022-08-09T00:47:55.655Z,15.30
2022-08-09T00:50:24.145Z,15.28
2022-08-09T00:52:52.771Z,15.22
2022-08-09T00:55:32.981Z,15.19
2022-08-09T00:58:11.326Z,15.18
2022-08-09T01:00:44.012Z,15.17
2022-08-09T01:03:20.015Z,15.12
2022-08-09T01:06:17.749Z,15.14
2022-08-09T01:09:01.796Z,15.13
2022-08-09T01:11:55.578Z,15.07
2022-08-09T01:14:30.884Z,15.05
2022-08-09T01:17:03.130Z,15.04
2022-08-09T01:19:57.228Z,15.06
2022-08-09T01:23:00.527Z,15.11
2022-08-09T01:25:51.116Z,15.15
2022-08-09T01:28:22.647Z,15.13
2022-08-09T01:30:58.258Z,15.12
2022-08-09T01:33:32.339Z,15.11
2022-08-09T01:36:07.227Z,15.06
2022-08-09T01:38:44.335Z,15.04
2022-08-09T01:41:25.843Z,15.04
2022-08-09T01:43:58.279Z,15.03
2022-08-09T01:46:32.357Z,15.04
2022-08-09T01:49:09.603Z,15.02
2022-08-09T01:51:43.025Z,14.99
2022-08-09T01:54:13.823Z,15.00
2022-08-09T01:56:51.304Z,15.01
2022-08-09T01:59:21.511Z,14.96
2022-08-09T02:01:59.327Z,14.98
2022-08-09T02:04:31.807Z,14.94
2022-08-09T02:07:15.303Z,14.95
2022-08-09T02:09:59.404Z,14.91
2022-08-09T02:12:29.077Z,14.86
2022-08-09T02:15:02.350Z,14.83
2022-08-09T02:18:00.424Z,14.75
2022-08-09T02:20:32.818Z,14.75
2022-08-09T02:23:10.090Z,14.72
2022-08-09T02:25:42.357Z,14.65
2022-08-09T02:28:17.999Z,14.59
2022-08-09T02:30:49.713Z,14.55
2022-08-09T02:33:37.725Z,14.46
2022-08-09T02:36:10.686Z,14.43
2022-08-09T02:38:47.831Z,14.38
2022-08-09T02:41:20.692Z,14.28
2022-08-09T02:43:54.116Z,14.22
2022-08-09T02:46:27.437Z,14.16
2022-08-09T02:48:59.476Z,14.16
2022-08-09T02:51:37.065Z,14.09
2022-08-09T02:54:10.736Z,14.08
2022-08-09T02:56:51.169Z,14.06
2022-08-09T02:59:26.283Z,14.08
2022-08-09T03:02:12.222Z,14.18
2022-08-09T03:04:45.111Z,14.22
2022-08-09T03:07:14.665Z,14.24
2022-08-09T03:09:54.283Z,14.27
2022-08-09T03:12:24.796Z,14.24
2022-08-09T03:14:56.279Z,14.21
2022-08-09T03:17:26.616Z,14.23
2022-08-09T03:20:03.193Z,14.27
2022-08-09T03:22:41.717Z,14.27
2022-08-09T03:25:25.898Z,14.25
2022-08-09T03:28:11.283Z,14.23
2022-08-09T03:30:39.295Z,14.23
2022-08-09T03:33:17.565Z,14.20
2022-08-09T03:36:13.414Z,14.16
2022-08-09T03:38:41.844Z,14.16
2022-08-09T03:41:16.291Z,14.19
2022-08-09T03:44:03.512Z,14.19
2022-08-09T03:46:35.437Z,14.24
2022-08-09T03:49:09.089Z,14.26
2022-08-09T03:51:55.888Z,14.31
2022-08-09T03:54:29.732Z,14.32
2022-08-09T03:57:00.027Z,14.38
2022-08-09T03:59:43.174Z,14.40
2022-08-09T04:02:14.775Z,14.38
2022-08-09T04:04:47.907Z,14.38
2022-08-09T04:07:18.197Z,14.42
2022-08-09T04:09:52.847Z,14.45
2022-08-09T04:12:31.657Z,14.47
2022-08-09T04:15:17.246Z,14.50
2022-08-09T04:17:50.753Z,14.52
2022-08-09T04:20:19.040Z,14.54
2022-08-09T04:22:46.328Z,14.56
2022-08-09T04:25:16.418Z,14.64
2022-08-09T04:27:48.886Z,14.73
2022-08-09T04:30:23.473Z,14.76
2022-08-09T04:32:54.205Z,14.82
2022-08-09T04:35:21.544Z,14.88
2022-08-09T04:37:50.022Z,14.92
2022-08-09T04:40:28.533Z,15.00
2022-08-09T04:43:03.624Z,15.12
2022-08-09T04:45:36.243Z,15.21
2022-08-09T04:48:20.163Z,15.26
2022-08-09T04:50:52.179Z,15.37
2022-08-09T04:53:19.084Z,15.43
2022-08-09T04:55:57.989Z,15.49
2022-08-09T04:58:27.929Z,15.69
2022-08-09T05:00:56.287Z,15.87
2022-08-09T05:03:39.941Z,15.83
2022-08-09T05:06:25.799Z,15.86
2022-08-09T05:09:00.451Z,15.96
2022-08-09T05:11:35.396Z,16.03
2022-08-09T05:14:06.698Z,16.11
2022-08-09T05:16:58.290Z,16.18
2022-08-09T05:19:26.170Z,16.26
2022-08-09T05:21:55.785Z,16.42
2022-08-09T05:24:24.876Z,16.55
2022-08-09T05:26:53.125Z,16.78
2022-08-09T05:29:22.833Z,17.38
2022-08-09T05:31:57.547Z,17.91
2022-08-09T05:34:32.101Z,18.61
2022-08-09T05:37:06.170Z,19.71
2022-08-09T05:39:42.695Z,20.29
2022-08-09T05:42:17.888Z,20.02
2022-08-09T05:44:50.544Z,20.34
2022-08-09T05:47:23.156Z,20.03
2022-08-09T05:50:26.786Z,19.37
2022-08-09T05:52:43.336Z,19.03
2022-08-09T05:55:20.857Z,18.71
2022-08-09T05:57:57.052Z,18.48
2022-08-09T06:00:33.027Z,18.38
2022-08-09T06:03:10.792Z,18.29
2022-08-09T06:05:57.017Z,18.33
2022-08-09T06:08:29.649Z,18.43
2022-08-09T06:10:59.215Z,18.48
2022-08-09T06:13:28.527Z,18.65
2022-08-09T06:16:05.342Z,18.73
2022-08-09T06:18:33.419Z,18.66
2022-08-09T06:21:01.543Z,18.65
2022-08-09T06:23:57.410Z,18.77
2022-08-09T06:26:28.652Z,18.92
2022-08-09T06:29:00.330Z,18.95
2022-08-09T06:31:39.748Z,19.01
2022-08-09T06:34:23.028Z,19.27
2022-08-09T06:36:59.132Z,19.54
2022-08-09T06:39:49.119Z,19.79
2022-08-09T06:42:19.818Z,19.77
2022-08-09T06:44:53.962Z,19.95
2022-08-09T06:47:22.271Z,20.03
2022-08-09T06:50:13.570Z,20.70
2022-08-09T06:52:58.971Z,21.16
2022-08-09T06:55:30.180Z,21.88
2022-08-09T06:58:04.510Z,22.87
2022-08-09T07:00:48.647Z,23.82
2022-08-09T07:03:27.670Z,25.58
2022-08-09T07:06:04.127Z,26.10
2022-08-09T07:08:33.440Z,27.04
2022-08-09T07:11:03.727Z,27.22
2022-08-09T07:13:45.206Z,27.80
2022-08-09T07:16:42.831Z,27.45
2022-08-09T07:19:15.008Z,27.88
2022-08-09T07:21:55.491Z,28.29
2022-08-09T07:24:32.109Z,28.28
2022-08-09T07:27:10.957Z,28.80
2022-08-09T07:29:57.233Z,28.39
2022-08-09T07:32:33.022Z,28.55
2022-08-09T07:35:08.043Z,29.33
2022-08-09T07:37:42.820Z,29.08
2022-08-09T07:40:17.041Z,29.04
2022-08-09T07:42:49.320Z,29.09
2022-08-09T07:45:23.701Z,29.54
2022-08-09T07:48:05.156Z,28.87
2022-08-09T07:50:36.507Z,29.23
2022-08-09T07:53:08.142Z,30.32
2022-08-09T07:55:41.283Z,30.49
2022-08-09T07:58:26.335Z,31.16
2022-08-09T08:01:06.171Z,31.08
2022-08-09T08:03:37.029Z,30.55
2022-08-09T08:06:05.297Z,30.47
2022-08-09T08:09:02.065Z,31.46
2022-08-09T08:12:10.577Z,31.44
2022-08-09T08:14:08.833Z,32.52
2022-08-09T08:16:36.503Z,32.80
2022-08-09T08:19:06.719Z,31.95
2022-08-09T08:21:33.851Z,31.45
2022-08-09T08:24:11.576Z,31.96
2022-08-09T08:26:42.199Z,32.45
2022-08-09T08:29:28.010Z,32.17
2022-08-09T08:32:03.619Z,31.90
2022-08-09T08:34:34.745Z,31.54
2022-08-09T08:37:05.149Z,31.36
2022-08-09T08:39:39.697Z,31.76
2022-08-09T08:42:12.984Z,31.44
2022-08-09T08:44:42.206Z,32.66
2022-08-09T08:47:15.398Z,32.47
2022-08-09T08:49:48.038Z,32.38
2022-08-09T08:52:58.267Z,32.39
2022-08-09T08:55:08.458Z,31.94
2022-08-09T08:57:38.308Z,32.64
2022-08-09T09:00:16.951Z,32.49
2022-08-09T09:02:52.783Z,32.09
2022-08-09T09:05:33.399Z,32.90
2022-08-09T09:08:31.010Z,33.60
2022-08-09T09:11:04.247Z,32.31
2022-08-09T09:13:56.198Z,32.54
2022-08-09T09:16:35.651Z,32.68
2022-08-09T09:19:37.688Z,32.37
2022-08-09T09:22:17.014Z,32.62
2022-08-09T09:26:03.682Z,31.92
2022-08-09T09:28:04.011Z,31.95
2022-08-09T09:30:52.294Z,31.61
2022-08-09T09:33:19.871Z,32.17
2022-08-09T09:36:01.401Z,33.17
2022-08-09T09:38:41.052Z,32.56
2022-08-09T09:41:12.351Z,32.27
2022-08-09T09:43:41.178Z,31.90
2022-08-09T09:46:50.760Z,30.88
2022-08-09T09:49:49.863Z,30.05
2022-08-09T09:52:16.429Z,30.07
2022-08-09T09:55:28.568Z,30.83
2022-08-09T09:58:17.405Z,29.56
2022-08-09T10:00:52.737Z,29.14
2022-08-09T10:03:57.130Z,27.68
2022-08-09T10:06:32.441Z,29.22
2022-08-09T10:09:11.742Z,30.32
2022-08-09T10:12:12.881Z,30.98
2022-08-09T10:14:53.207Z,30.05
2022-08-09T10:17:39.887Z,29.64
2022-08-09T10:20:27.371Z,28.10
2022-08-09T10:23:21.957Z,28.73
2022-08-09T10:26:08.164Z,30.45
2022-08-09T10:28:40.550Z,31.49
2022-08-09T10:34:10.362Z,31.17
2022-08-09T10:36:49.961Z,30.57
2022-08-09T10:39:19.730Z,28.97
2022-08-09T10:41:48.196Z,30.14
2022-08-09T10:44:24.975Z,30.31
2022-08-09T10:47:20.521Z,30.15
2022-08-09T10:50:03.869Z,29.87
2022-08-09T10:52:49.844Z,30.35
2022-08-09T10:55:24.874Z,30.38
2022-08-09T10:57:56.019Z,28.85
2022-08-09T11:01:10.780Z,29.03
2022-08-09T11:03:49.902Z,29.14
2022-08-09T11:06:25.339Z,29.05
2022-08-09T11:08:54.002Z,29.04
2022-08-09T11:11:24.775Z,29.54
2022-08-09T11:14:35.540Z,28.94
2022-08-09T11:17:25.359Z,29.53
2022-08-09T11:20:19.691Z,29.97
2022-08-09T11:22:56.768Z,29.81
2022-08-09T11:25:36.154Z,29.00
2022-08-09T11:28:30.601Z,29.37
2022-08-09T11:31:34.134Z,29.58
2022-08-09T11:34:10.413Z,29.71
2022-08-09T11:36:42.886Z,29.77
2022-08-09T11:39:11.932Z,29.64
2022-08-09T11:41:40.757Z,29.53
2022-08-09T11:44:08.646Z,29.55
2022-08-09T11:46:57.311Z,29.83
2022-08-09T11:50:54.017Z,29.79
2022-08-09T11:53:21.359Z,29.80
2022-08-09T11:55:53.108Z,29.42
2022-08-09T11:58:33.147Z,29.42
2022-08-09T12:01:09.037Z,29.16
2022-08-09T12:04:00.408Z,29.25
2022-08-09T12:06:32.696Z,29.24
2022-08-09T12:09:19.732Z,29.28
2022-08-09T12:12:04.070Z,28.98
2022-08-09T12:14:41.071Z,29.01
2022-08-09T12:17:34.697Z,28.49
2022-08-09T12:20:24.264Z,28.54
2022-08-09T12:23:01.070Z,28.38
2022-08-09T12:25:37.279Z,28.26
2022-08-09T12:29:14.711Z,28.42
2022-08-09T12:31:01.365Z,28.48
2022-08-09T12:33:51.124Z,28.44
2022-08-09T12:36:31.359Z,28.26
2022-08-09T12:39:00.109Z,28.27
2022-08-09T12:41:39.035Z,28.34
2022-08-09T12:44:12.616Z,28.10
2022-08-09T12:46:49.838Z,28.18
2022-08-09T12:49:18.343Z,28.13
2022-08-09T12:52:01.039Z,28.19
2022-08-09T12:54:30.990Z,28.26
2022-08-09T12:57:00.456Z,28.25
2022-08-09T12:59:57.919Z,28.16
2022-08-09T13:02:18.414Z,28.16
2022-08-09T13:05:03.351Z,28.30
2022-08-09T13:07:50.188Z,28.15
2022-08-09T13:10:20.724Z,28.07
2022-08-09T13:13:09.500Z,28.22
2022-08-09T13:15:36.216Z,28.09
2022-08-09T13:18:06.210Z,28.16
2022-08-09T13:21:04.054Z,28.24
2022-08-09T13:24:17.158Z,28.32
2022-08-09T13:26:36.993Z,28.35
2022-08-09T13:29:09.709Z,27.96
2022-08-09T13:32:16.054Z,27.74
2022-08-09T13:34:49.103Z,27.80
2022-08-09T13:37:24.630Z,27.80
2022-08-09T13:41:52.558Z,27.80
2022-08-09T13:42:54.012Z,27.80
2022-08-09T13:45:31.948Z,27.83
2022-08-09T13:48:11.135Z,27.65
2022-08-09T13:50:38.662Z,27.58
2022-08-09T13:53:08.109Z,27.66
2022-08-09T13:55:42.790Z,27.81
2022-08-09T13:58:12.355Z,27.69
2022-08-09T14:00:49.951Z,27.71
2022-08-09T14:04:03.575Z,27.63
2022-08-09T14:06:19.370Z,27.63
2022-08-09T14:08:53.502Z,27.68
2022-08-09T14:11:21.140Z,27.55
2022-08-09T14:14:23.122Z,27.34
2022-08-09T14:16:35.473Z,27.37
2022-08-09T14:19:07.265Z,27.38
2022-08-09T14:21:34.514Z,27.53
2022-08-09T14:24:18.368Z,27.55
2022-08-09T14:26:51.981Z,27.48
2022-08-09T14:30:04.408Z,27.46
2022-08-09T14:32:13.393Z,27.50
2022-08-09T14:34:43.989Z,27.37
2022-08-09T14:37:14.794Z,27.43
2022-08-09T14:39:48.857Z,27.30
2022-08-09T14:42:30.301Z,27.34
2022-08-09T14:46:46.413Z,27.36
2022-08-09T14:47:58.297Z,27.23
2022-08-09T14:50:31.116Z,27.25
2022-08-09T14:53:00.444Z,27.22
2022-08-09T14:55:32.337Z,27.17
2022-08-09T14:58:05.521Z,27.02
2022-08-09T15:00:36.221Z,27.06
2022-08-09T15:03:10.617Z,27.09
2022-08-09T15:05:39.767Z,27.03
2022-08-09T15:08:19.050Z,26.97
2022-08-09T15:11:00.798Z,26.95
2022-08-09T15:13:56.511Z,26.97
2022-08-09T15:16:17.752Z,26.99
2022-08-09T15:18:48.336Z,26.93
2022-08-09T15:21:55.865Z,26.92
2022-08-09T15:24:11.548Z,26.89
2022-08-09T15:26:46.136Z,26.85
2022-08-09T15:30:58.429Z,26.81
2022-08-09T15:32:04.955Z,26.78
2022-08-09T15:34:56.295Z,26.78
2022-08-09T15:37:37.724Z,26.75
2022-08-09T15:40:25.289Z,26.71
2022-08-09T15:42:59.922Z,26.67
2022-08-09T15:45:30.064Z,26.62
2022-08-09T15:48:05.137Z,26.55
2022-08-09T15:50:39.180Z,26.50
2022-08-09T15:53:32.631Z,26.46
2022-08-09T15:56:21.153Z,26.38
2022-08-09T15:58:44.700Z,26.35
2022-08-09T16:01:17.016Z,26.33
2022-08-09T16:03:46.588Z,26.31
2022-08-09T16:06:34.933Z,26.27
2022-08-09T16:09:06.217Z,26.26
2022-08-09T16:11:40.697Z,26.21
2022-08-09T16:14:13.760Z,26.12
2022-08-09T16:16:45.727Z,26.11
2022-08-09T16:19:16.229Z,26.07
2022-08-09T16:21:51.710Z,26.01
2022-08-09T16:24:29.882Z,25.95
2022-08-09T16:27:01.158Z,25.88
2022-08-09T16:29:37.647Z,25.89
2022-08-09T16:32:12.598Z,25.93
2022-08-09T16:34:58.063Z,25.84
2022-08-09T16:37:55.181Z,25.82
2022-08-09T16:40:20.493Z,25.76
2022-08-09T16:43:02.245Z,25.68
2022-08-09T16:45:32.233Z,25.61
2022-08-09T16:48:38.470Z,25.53
2022-08-09T16:50:59.183Z,25.47
2022-08-09T16:53:34.557Z,25.45
2022-08-09T16:56:06.251Z,25.37
2022-08-09T16:58:49.697Z,25.29
2022-08-09T17:01:23.530Z,25.23
2022-08-09T17:03:52.688Z,25.15
2022-08-09T17:06:31.959Z,25.10
2022-08-09T17:09:12.025Z,25.04
2022-08-09T17:11:51.611Z,25.03
2022-08-09T17:14:27.915Z,24.93
2022-08-09T17:17:03.426Z,24.80
2022-08-09T17:20:09.117Z,24.73
2022-08-09T17:22:35.948Z,24.64
2022-08-09T17:25:10.210Z,24.60
2022-08-09T17:27:48.772Z,24.57
2022-08-09T17:30:17.238Z,24.57
2022-08-09T17:32:51.236Z,24.48
2022-08-09T17:35:18.696Z,24.44
2022-08-09T17:38:12.864Z,24.41
2022-08-09T17:40:36.304Z,24.27
2022-08-09T17:43:32.412Z,24.17
2022-08-09T17:46:02.578Z,24.03
2022-08-09T17:48:32.542Z,23.96
2022-08-09T17:51:09.603Z,23.90
2022-08-09T17:53:51.520Z,23.86
2022-08-09T17:56:35.195Z,23.79
2022-08-09T17:59:11.887Z,23.72
2022-08-09T18:02:06.108Z,23.64
2022-08-09T18:04:31.161Z,23.52
2022-08-09T18:06:58.874Z,23.39
2022-08-09T18:09:40.792Z,23.30
2022-08-09T18:12:19.514Z,23.24
2022-08-09T18:18:02.074Z,23.13
2022-08-09T18:20:58.763Z,22.96
2022-08-09T18:24:11.439Z,22.88
2022-08-09T18:26:05.790Z,22.78
2022-08-09T18:30:41.260Z,22.75
2022-08-09T18:31:32.333Z,22.64
2022-08-09T18:34:08.222Z,22.60
2022-08-09T18:36:36.539Z,22.62
2022-08-09T18:39:05.657Z,22.59
2022-08-09T18:41:35.328Z,22.50
2022-08-09T18:44:12.396Z,22.38
2022-08-09T18:46:48.615Z,22.31
2022-08-09T18:49:19.623Z,22.25
2022-08-09T18:51:55.391Z,22.16
2022-08-09T18:54:29.445Z,22.06
2022-08-09T18:57:05.180Z,21.97
2022-08-09T18:59:48.598Z,21.80
2022-08-09T19:02:18.272Z,21.74
2022-08-09T19:04:47.646Z,21.64
2022-08-09T19:07:27.997Z,21.63
2022-08-09T19:10:14.044Z,21.61
2022-08-09T19:12:51.394Z,21.58
2022-08-09T19:15:29.368Z,21.46
2022-08-09T19:17:58.962Z,21.35
2022-08-09T19:20:26.753Z,21.26
2022-08-09T19:23:01.773Z,21.14
2022-08-09T19:25:42.782Z,21.21
2022-08-09T19:28:17.175Z,21.09
2022-08-09T19:30:46.634Z,21.09
2022-08-09T19:33:19.839Z,21.06
2022-08-09T19:35:57.304Z,21.02
2022-08-09T19:38:27.321Z,20.88
2022-08-09T19:40:59.669Z,20.77
2022-08-09T19:43:58.032Z,20.78
2022-08-09T19:46:34.237Z,20.72
2022-08-09T19:50:06.998Z,20.63
2022-08-09T19:51:55.698Z,20.52
2022-08-09T19:54:27.670Z,20.46
2022-08-09T19:56:59.090Z,20.36
2022-08-09T19:59:57.983Z,20.34
2022-08-09T20:04:12.725Z,20.36
2022-08-09T20:05:10.275Z,20.27
2022-08-09T20:07:58.556Z,20.29
2022-08-09T20:10:34.341Z,20.24
2022-08-09T20:13:04.859Z,20.23
2022-08-09T20:16:36.361Z,20.17
2022-08-09T20:18:22.400Z,20.17
2022-08-09T20:20:55.335Z,20.14
2022-08-09T20:23:23.776Z,20.20
2022-08-09T20:25:53.599Z,20.12
2022-08-09T20:28:28.122Z,20.09
2022-08-09T20:31:13.738Z,20.08
2022-08-09T20:33:44.592Z,20.09
2022-08-09T20:36:12.977Z,20.26
2022-08-09T20:41:34.927Z,20.40
2022-08-09T20:44:10.174Z,20.39
2022-08-09T20:46:44.479Z,20.37
2022-08-09T20:49:14.107Z,20.31
2022-08-09T20:51:50.732Z,20.32
2022-08-09T20:54:18.837Z,20.24
2022-08-09T20:56:49.485Z,20.13
2022-08-09T20:59:50.319Z,20.14
2022-08-09T21:02:17.505Z,20.13
2022-08-09T21:05:54.620Z,19.99
2022-08-09T21:07:40.491Z,19.93
2022-08-09T21:10:11.982Z,19.91
2022-08-09T21:12:39.688Z,19.87
2022-08-09T21:15:12.694Z,19.84
2022-08-09T21:18:22.511Z,19.79
2022-08-09T21:20:32.015Z,19.82
2022-08-09T21:23:00.644Z,19.80
2022-08-09T21:25:55.272Z,19.79
2022-08-09T21:28:33.585Z,19.83
2022-08-09T21:31:13.553Z,20.02
2022-08-09T21:33:52.417Z,19.97
2022-08-09T21:36:27.842Z,19.91
2022-08-09T21:38:59.848Z,19.90
2022-08-09T21:42:04.221Z,19.94
2022-08-09T21:44:33.867Z,20.01
2022-08-09T21:47:09.695Z,20.12
2022-08-09T21:49:42.749Z,20.14
2022-08-09T21:52:17.551Z,20.22
2022-08-09T21:54:59.510Z,20.22
2022-08-09T21:57:39.560Z,20.07
2022-08-09T22:00:32.528Z,19.97
2022-08-09T22:03:19.160Z,19.85
2022-08-09T22:05:51.259Z,19.76
2022-08-09T22:08:18.833Z,19.75
2022-08-09T22:11:49.909Z,19.71
2022-08-09T22:13:43.354Z,19.66
2022-08-09T22:16:11.596Z,19.64
2022-08-09T22:18:54.327Z,19.56
2022-08-09T22:21:49.779Z,19.51
2022-08-09T22:24:16.775Z,19.51
2022-08-09T22:26:51.147Z,19.48
2022-08-09T22:29:22.985Z,19.33
2022-08-09T22:31:57.342Z,19.32
2022-08-09T22:34:28.715Z,19.26
2022-08-09T22:36:57.810Z,19.16
2022-08-09T22:39:57.156Z,19.20
2022-08-09T22:42:21.455Z,19.18
2022-08-09T22:48:04.518Z,19.14
2022-08-09T22:48:10.863Z,19.09
2022-08-09T22:50:35.021Z,19.11
2022-08-09T22:53:03.572Z,19.16
2022-08-09T22:56:06.294Z,19.15
2022-08-09T22:58:30.789Z,19.12
2022-08-09T23:01:05.598Z,19.16
2022-08-09T23:04:04.252Z,19.22
2022-08-09T23:06:35.511Z,19.22
2022-08-09T23:09:06.603Z,19.38
2022-08-09T23:11:34.068Z,19.46
2022-08-09T23:14:03.387Z,19.57
2022-08-09T23:16:31.795Z,19.58
2022-08-09T23:19:00.064Z,19.52
2022-08-09T23:21:32.807Z,19.49
2022-08-09T23:24:06.289Z,19.44
2022-08-09T23:26:39.225Z,19.29
2022-08-09T23:29:08.504Z,19.16
2022-08-09T23:31:35.693Z,19.03
2022-08-09T23:34:03.831Z,18.87
2022-08-09T23:36:32.563Z,18.90
2022-08-09T23:38:59.807Z,18.80
2022-08-09T23:41:28.295Z,18.67
2022-08-09T23:44:03.902Z,18.64
2022-08-09T23:46:31.723Z,18.48
2022-08-09T23:48:59.906Z,18.42
2022-08-09T23:51:27.747Z,18.33
2022-08-09T23:54:02.381Z,18.26
2022-08-09T23:56:51.973Z,18.18
2022-08-09T23:59:20.509Z,18.17
